Flight Track Log - Related Links

Times and Time Zones

All times are in EDT time to prevent confusion due to time zone crossing. See the XSR335 flight status page for this flight to view local times or setup timezone preferences in your user account.

Time Position Orientation Groundspeed Altitude Reporting Facility
EDT Latitude Longitude Course Direction KTS MPH feet Rate Location/Type
Tue 11:46:39 AM 40.0650 -80.2340 216° Southwest 313 360 14,100  Level FlightAware
Tue 11:47:21 AM 40.0230 -80.2740 216° Southwest 313 360 14,100  Level FlightAware
Tue 11:47:58 AM 39.9860 -80.3090 216° Southwest 313 360 14,100 2,703 Level FlightAware
Tue 11:50:23 AM 39.7850 -80.5040 217° Southwest 338 389 22,300 3,000 Climbing FlightAware
Tue 11:51:06 AM 39.7310 -80.5550 216° Southwest 341 392 23,500 1,023 Climbing FlightAware
Tue 11:51:51 AM 39.6830 -80.6070 220° Southwest 339 390 23,800 1,465 Climbing FlightAware
Tue 11:52:32 AM 39.6810 -80.7120 269° West 348 400 25,600 1,926 Climbing FlightAware
Tue 11:53:12 AM 39.6680 -80.7950 259° West 358 412 26,400 1,214 Climbing FlightAware
Tue 11:53:56 AM 39.6530 -80.8920 259° West 366 421 27,300 1,214 Climbing FlightAware
Tue 11:54:36 AM 39.6400 -80.9780 259° West 372 428 28,100 1,169 Climbing FlightAware
Tue 11:55:13 AM 39.6280 -81.0610 259° West 380 437 28,800 1,000 Climbing FlightAware
Tue 11:56:00 AM 39.6120 -81.1650 259° West 388 447 29,500 944 Climbing FlightAware
Tue 11:56:42 AM 39.5970 -81.2630 259° West 395 455 30,200 1,059 Climbing FlightAware
Tue 11:57:25 AM 39.5820 -81.3640 259° West 400 460 31,000 1,059 Climbing FlightAware
Tue 11:58:07 AM 39.5670 -81.4630 259° West 404 465 31,700 1,000 Climbing FlightAware
Tue 11:58:49 AM 39.5510 -81.5650 259° West 407 468 32,400 1,000 Climbing FlightAware
Tue 11:59:31 AM 39.5360 -81.6600 258° West 410 472 33,100 963 Climbing FlightAware
Tue 12:00:10 PM 39.5200 -81.7580 258° West 412 474 33,700 988 Climbing FlightAware
Tue 12:00:56 PM 39.5030 -81.8680 259° West 413 475 34,500 1,047 Climbing FlightAware
Tue 12:01:36 PM 39.4870 -81.9670 258° West 413 475 35,200 1,012 Climbing FlightAware
Tue 12:02:19 PM 39.4710 -82.0720 259° West 414 476 35,900 1,000 Climbing FlightAware
Tue 12:03:00 PM 39.4550 -82.1700 258° West 413 475 36,600 988 Climbing FlightAware
Tue 12:03:44 PM 39.4380 -82.2750 258° West 413 475 37,300 988 Climbing FlightAware
Tue 12:04:25 PM 39.4210 -82.3750 258° West 411 473 38,000 990 Climbing FlightAware
Tue 12:05:21 PM 39.4000 -82.5090 259° West 405 466 38,900 947 Climbing FlightAware
Tue 12:06:00 PM 39.3840 -82.6030 258° West 401 461 39,500 714 Climbing FlightAware
Tue 12:06:45 PM 39.3670 -82.7060 258° West 405 466 39,900 353 Climbing FlightAware
Tue 12:07:25 PM 39.3510 -82.8030 258° West 415 478 40,000 73 Climbing FlightAware
Tue 12:08:07 PM 39.3340 -82.9040 258° West 425 489 40,000  Level FlightAware
Tue 12:08:50 PM 39.3150 -83.0150 258° West 434 499 40,000  Level FlightAware
Tue 12:09:34 PM 39.2970 -83.1220 258° West 433 498 40,000  Level FlightAware
Tue 12:10:16 PM 39.2790 -83.2300 258° West 430 495 40,000  Level FlightAware
Tue 12:10:58 PM 39.2610 -83.3310 257° West 431 496 40,000  Level FlightAware
Tue 12:11:36 PM 39.2450 -83.4260 258° West 431 496 40,000  Level FlightAware
Tue 12:12:20 PM 39.2270 -83.5320 258° West 431 496 40,000  Level FlightAware
Tue 12:13:04 PM 39.2050 -83.6530 257° West 430 495 40,000  Level FlightAware
Tue 12:13:46 PM 39.1870 -83.7570 257° West 431 496 40,000  Level FlightAware
Tue 12:14:26 PM 39.1690 -83.8580 257° West 430 495 40,000  Level FlightAware
Tue 12:16:52 PM 39.1050 -84.2180 257° West 426 490 40,000  Level FlightAware
Tue 12:17:32 PM 39.0870 -84.3180 257° West 426 490 40,000  Level FlightAware
Tue 12:18:16 PM 39.0680 -84.4210 257° West 426 490 40,000  Level FlightAware
Tue 12:18:56 PM 39.0490 -84.5230 257° West 425 489 40,000  Level FlightAware
Tue 12:19:37 PM 39.0310 -84.6240 257° West 424 488 40,000  Level FlightAware
Tue 12:20:15 PM 39.0140 -84.7160 257° West 424 488 40,000  Level FlightAware
Tue 12:21:00 PM 38.9930 -84.8280 256° West 422 486 40,000  Level FlightAware
Tue 12:21:54 PM 38.9690 -84.9610 257° West 421 484 40,000  Level FlightAware
Tue 12:22:36 PM 38.9520 -85.0570 257° West 419 482 40,000  Level FlightAware
Tue 12:23:20 PM 38.9320 -85.1660 257° West 419 482 40,000  Level FlightAware
Tue 12:24:02 PM 38.9120 -85.2700 256° West 421 484 40,000  Level FlightAware
Tue 12:24:45 PM 38.8930 -85.3750 257° West 422 486 40,000  Level FlightAware
Tue 12:25:25 PM 38.8750 -85.4720 257° West 422 486 40,000  Level FlightAware
Tue 12:26:21 PM 38.8490 -85.6080 256° West 422 486 40,000  Level FlightAware
Tue 12:27:01 PM 38.8310 -85.7050 257° West 422 486 40,000  Level FlightAware
Tue 12:27:47 PM 38.8090 -85.8190 256° West 422 486 40,000  Level FlightAware
Tue 12:28:29 PM 38.7900 -85.9190 256° West 421 484 40,000  Level FlightAware
Tue 12:29:11 PM 38.7700 -86.0210 256° West 421 484 40,000  Level FlightAware
Tue 12:29:55 PM 38.7500 -86.1290 257° West 420 483 40,000  Level FlightAware
Tue 12:30:32 PM 38.7330 -86.2150 256° West 419 482 40,000  Level FlightAware
Tue 12:31:33 PM 38.7040 -86.3610 256° West 417 480 40,000  Level FlightAware
Tue 12:32:09 PM 38.6870 -86.4490 256° West 417 480 40,000  Level FlightAware
Tue 12:32:57 PM 38.6650 -86.5640 256° West 417 480 40,000  Level FlightAware
Tue 12:33:39 PM 38.6440 -86.6660 255° West 417 480 40,000  Level FlightAware
Tue 12:34:19 PM 38.6250 -86.7610 256° West 418 481 40,000  Level FlightAware
Tue 12:35:00 PM 38.6060 -86.8580 256° West 419 482 40,000  Level FlightAware
Tue 12:35:42 PM 38.5860 -86.9550 255° West 419 482 40,000  Level FlightAware
Tue 12:36:25 PM 38.5650 -87.0610 256° West 418 481 40,000  Level FlightAware
Tue 12:37:08 PM 38.5450 -87.1600 256° West 418 481 40,000  Level FlightAware
Tue 12:37:47 PM 38.5250 -87.2560 255° West 418 481 40,000  Level FlightAware
Tue 12:38:33 PM 38.5030 -87.3640 255° West 419 482 40,000  Level FlightAware
Tue 12:39:09 PM 38.4850 -87.4510 255° West 420 483 40,000  Level FlightAware
Tue 12:39:57 PM 38.4610 -87.5680 255° West 421 484 40,000  Level FlightAware
Tue 12:40:38 PM 38.4400 -87.6660 255° West 422 486 40,000  Level FlightAware
Tue 12:41:21 PM 38.4190 -87.7670 255° West 422 486 40,000  Level FlightAware
Tue 12:42:03 PM 38.3970 -87.8730 255° West 423 487 40,000  Level FlightAware
Tue 12:42:42 PM 38.3790 -87.9570 255° West 422 486 40,000  Level FlightAware
Tue 12:43:28 PM 38.3550 -88.0720 255° West 420 483 40,000  Level FlightAware
Tue 12:44:07 PM 38.3340 -88.1690 255° West 421 484 40,000  Level FlightAware
Tue 12:44:51 PM 38.3120 -88.2720 255° West 422 486 40,000  Level FlightAware
Tue 12:45:33 PM 38.2840 -88.3710 250° West 425 489 40,000  Level FlightAware
Tue 12:46:14 PM 38.2420 -88.4600 239° Southwest 424 488 40,000  Level FlightAware
Tue 12:46:59 PM 38.1960 -88.5550 238° Southwest 424 488 40,000  Level FlightAware
Tue 12:47:37 PM 38.1560 -88.6360 238° Southwest 426 490 40,000  Level FlightAware
Tue 12:48:23 PM 38.1110 -88.7300 239° Southwest 426 490 40,000  Level FlightAware
Tue 12:49:02 PM 38.0710 -88.8120 238° Southwest 426 490 40,000  Level FlightAware
Tue 12:49:40 PM 38.0260 -88.8940 235° Southwest 429 494 40,000  Level FlightAware
Tue 12:50:21 PM 37.9760 -88.9780 233° Southwest 430 495 40,000  Level FlightAware
Tue 12:51:07 PM 37.9250 -89.0720 235° Southwest 427 491 40,000  Level FlightAware
Tue 12:51:51 PM 37.9010 -89.1730 253° West 419 482 40,000  Level FlightAware
Tue 12:52:34 PM 37.8800 -89.2770 256° West 421 484 40,000  Level FlightAware
Tue 12:53:16 PM 37.8600 -89.3760 256° West 423 487 40,000  Level FlightAware
Tue 12:53:54 PM 37.8430 -89.4590 255° West 423 487 40,000  Level FlightAware
Tue 12:54:39 PM 37.8190 -89.5790 256° West 428 493 40,000  Level FlightAware
Tue 12:55:20 PM 37.8010 -89.6670 256° West 428 493 40,000  Level FlightAware
Tue 12:56:04 PM 37.7780 -89.7840 256° West 431 496 40,000  Level FlightAware
Tue 12:56:57 PM 37.7510 -89.9170 256° West 431 496 40,000  Level FlightAware
Tue 12:57:42 PM 37.7310 -90.0110 255° West 431 496 40,000  Level FlightAware
Tue 12:58:30 PM 37.7070 -90.1290 256° West 431 496 40,000  Level FlightAware
Tue 12:59:36 PM 37.6750 -90.2820 255° West 432 497 40,000  Level FlightAware
Tue 01:00:17 PM 37.6570 -90.3670 255° West 432 497 40,000  Level FlightAware
Tue 01:00:54 PM 37.6400 -90.4440 254° West 432 497 40,000  Level FlightAware
Tue 01:01:54 PM 37.6140 -90.5680 255° West 432 497 40,000  Level FlightAware
Tue 01:02:30 PM 37.5980 -90.6420 255° West 432 497 40,000  Level FlightAware
Tue 01:03:23 PM 37.5750 -90.7520 255° West 432 497 40,000  Level FlightAware
Tue 01:04:12 PM 37.5530 -90.8540 255° West 432 497 40,000  Level FlightAware
Tue 01:04:49 PM 37.5370 -90.9300 255° West 432 497 40,000  Level FlightAware
Tue 01:05:35 PM 37.5170 -91.0250 255° West 432 497 40,000  Level FlightAware
Tue 01:06:26 PM 37.4570 -91.3060 255° West 435 501 40,000  Level FlightAware
Tue 01:07:16 PM 37.4300 -91.4290 255° West 433 498 40,000  Level FlightAware
Tue 01:07:58 PM 37.4080 -91.5270 254° West 431 496 40,000  Level FlightAware
Tue 01:08:38 PM 37.3860 -91.6260 254° West 429 494 40,000  Level FlightAware
Tue 01:09:18 PM 37.3650 -91.7220 255° West 428 493 40,000  Level FlightAware
Tue 01:10:02 PM 37.3410 -91.8270 254° West 427 491 40,000  Level FlightAware
Tue 01:10:42 PM 37.3200 -91.9210 254° West 426 490 40,000  Level FlightAware
Tue 01:11:41 PM 37.2890 -92.0610 254° West 424 488 40,000  Level FlightAware
Tue 01:12:23 PM 37.2660 -92.1620 254° West 423 487 40,000  Level FlightAware
Tue 01:13:03 PM 37.2450 -92.2550 254° West 424 488 40,000  Level FlightAware
Tue 01:13:47 PM 37.2210 -92.3600 254° West 425 489 40,000  Level FlightAware
Tue 01:14:29 PM 37.1980 -92.4590 254° West 427 491 40,000  Level FlightAware
Tue 01:14:57 PM 37.1830 -92.5260 254° West 427 491 40,000  Level FlightAware
Tue 01:16:45 PM 37.1230 -92.7860 254° West 429 494 40,000  Level FlightAware
Tue 01:17:25 PM 37.1010 -92.8790 254° West 428 493 40,000  Level FlightAware
Tue 01:18:05 PM 37.0790 -92.9730 254° West 428 493 40,000  Level FlightAware
Tue 01:18:51 PM 37.0530 -93.0840 254° West 425 489 40,000  Level FlightAware
Tue 01:19:33 PM 37.0300 -93.1810 253° West 422 486 40,000  Level FlightAware
Tue 01:20:09 PM 37.0090 -93.2670 253° West 420 483 40,000  Level FlightAware
Tue 01:20:57 PM 36.9830 -93.3760 253° West 418 481 40,000  Level FlightAware
Tue 01:21:33 PM 36.9630 -93.4610 254° West 418 481 40,000  Level FlightAware
Tue 01:22:19 PM 36.9370 -93.5680 253° West 418 481 40,000  Level FlightAware
Tue 01:23:01 PM 36.9140 -93.6630 253° West 417 480 40,000  Level FlightAware
Tue 01:23:41 PM 36.8920 -93.7570 254° West 417 480 40,000  Level FlightAware
Tue 01:24:26 PM 36.8670 -93.8590 253° West 418 481 40,000  Level FlightAware
Tue 01:25:08 PM 36.8430 -93.9570 253° West 421 484 40,000  Level FlightAware
Tue 01:26:00 PM 36.8130 -94.0790 253° West 422 486 40,000  Level FlightAware
Tue 01:26:43 PM 36.7890 -94.1770 253° West 422 486 40,000  Level FlightAware
Tue 01:27:28 PM 36.7630 -94.2840 253° West 421 484 40,000  Level FlightAware
Tue 01:28:10 PM 36.7390 -94.3790 253° West 421 484 40,000  Level FlightAware
Tue 01:28:54 PM 36.7130 -94.4840 253° West 420 483 40,000  Level FlightAware
Tue 01:29:36 PM 36.6890 -94.5800 253° West 424 488 40,000  Level FlightAware
Tue 01:30:12 PM 36.6680 -94.6640 253° West 425 489 40,000 -366 Level FlightAware
Tue 01:30:58 PM 36.6400 -94.7720 252° West 427 491 39,500 -800 Descending FlightAware
Tue 01:31:42 PM 36.6150 -94.8740 253° West 425 489 38,800 -977 Descending FlightAware
Tue 01:32:24 PM 36.5900 -94.9710 252° West 422 486 38,100 -1,000 Descending FlightAware
Tue 01:33:06 PM 36.5650 -95.0670 252° West 419 482 37,400 -975 Descending FlightAware
Tue 01:33:44 PM 36.5430 -95.1560 253° West 419 482 36,800 -951 Descending FlightAware
Tue 01:34:28 PM 36.5170 -95.2560 252° West 419 482 36,100 -857 Descending FlightAware
Tue 01:35:08 PM 36.4930 -95.3480 252° West 427 491 35,600 -857 Descending FlightAware
Tue 01:35:52 PM 36.4660 -95.4540 252° West 433 498 34,900 -977 Descending FlightAware
Tue 01:36:34 PM 36.4410 -95.5470 252° West 432 497 34,200 -1,050 Descending FlightAware
Tue 01:37:12 PM 36.4170 -95.6410 252° West 431 496 33,500 -897 Descending FlightAware
Tue 01:38:01 PM 36.3890 -95.7480 252° West 436 502 32,900 -1,829 Descending FlightAware
Tue 01:38:57 PM 36.3510 -95.8930 252° West 441 507 30,300 -1,768 Descending FlightAware
Tue 01:39:53 PM 36.3190 -96.0090 251° West 430 495 29,600 -1,149 Descending FlightAware
Tue 01:40:31 PM 36.2940 -96.1050 252° West 400 460 28,500 -1,622 Descending FlightAware
Tue 01:41:07 PM 36.2740 -96.1830 252° West 394 453 27,600 -2,000 Descending FlightAware
Tue 01:41:55 PM 36.2450 -96.2890 251° West 414 476 25,700 -2,267 Descending FlightAware
Tue 01:42:37 PM 36.2200 -96.3840 252° West 424 488 24,200 -1,159 Descending FlightAware
Tue 01:43:23 PM 36.1930 -96.4790 251° West 425 489 24,000 -1,409 Descending FlightAware
Tue 01:44:32 PM 36.1510 -96.6340 251° West 415 478 21,500 -1,596 Descending FlightAware
Tue 01:44:57 PM 36.1380 -96.6820 251° West 415 478 21,500  Level FlightAware
Tue 01:46:01 PM 36.1040 -96.8040 251° West 415 478 21,500  Level FlightAware
Tue 01:46:37 PM 36.0850 -96.8730 251° West 415 478 21,500  Level FlightAware
Tue 01:47:26 PM 36.0590 -96.9660 251° West 415 478 21,500 -5,270 Level FlightAware
Tue 01:48:32 PM 36.0228 -97.1092 251° West 364 419 11,400 -5,625 Descending Kansas Center
Tue 01:49:34 PM 35.9728 -97.2108 239° Southwest 296 341 9,500 -1,742 Descending Kansas Center
Tue 01:50:36 PM 35.9222 -97.2744 226° Southwest 268 308 7,800 -1,500 Descending Kansas Center
Tue 01:51:38 PM 35.8750 -97.3344 226° Southwest 251 289 6,400 -871 Descending Kansas Center
Tue 01:52:40 PM 35.8283 -97.3922 225° Southwest 242 278 6,000 -387 Descending Kansas Center
Tue 01:53:42 PM 35.7803 -97.4536 226° Southwest 247 284 5,600 -774 Descending Kansas Center
Tue 01:54:44 PM 35.7322 -97.5142 226° Southwest 248 285 4,400 -1,210 Descending Kansas Center
Tue 01:55:46 PM 35.6839 -97.5742 225° Southwest 222 255 3,100 -677 Descending Kansas Center
Tue 01:56:48 PM 35.6522 -97.6133 225° Southwest 190 219 3,000 -96 Descending Kansas Center
Tue 01:57:51 PM 35.6247 -97.6467 225° Southwest 162 186 2,900 -384 Descending Kansas Center
Tue 01:58:53 PM 35.5925 -97.6461 179° South 130 150 2,200 -532 Descending Kansas Center
Tue 01:59:55 PM 35.5656 -97.6456 179° South 108 124 1,800 -387 Descending Kansas Center

Login

Don't have an account? Register now (free) for customized features, flight alerts, and more!